createdAt,value
2023-03-28T00:04:42.209Z,100.00
2023-03-28T00:09:44.988Z,100.00
2023-03-28T00:14:47.996Z,100.00
2023-03-28T00:19:53.767Z,100.00
2023-03-28T00:24:59.065Z,100.00
2023-03-28T00:30:02.834Z,100.00
2023-03-28T00:35:06.776Z,100.00
2023-03-28T00:40:10.247Z,100.00
2023-03-28T00:45:13.182Z,100.00
2023-03-28T00:50:27.780Z,100.00
2023-03-28T00:55:48.066Z,99.07
2023-03-28T01:00:55.105Z,98.14
2023-03-28T01:05:58.470Z,97.53
2023-03-28T01:11:12.575Z,95.72
2023-03-28T01:16:16.359Z,95.22
2023-03-28T01:21:54.173Z,95.22
2023-03-28T01:27:27.752Z,94.71
2023-03-28T01:32:50.394Z,93.44
2023-03-28T01:38:03.341Z,92.96
2023-03-28T01:43:37.424Z,91.97
2023-03-28T01:49:16.305Z,90.42
2023-03-28T01:54:26.606Z,89.60
2023-03-28T01:59:48.603Z,88.54
2023-03-28T02:05:03.286Z,88.09
2023-03-28T02:10:09.192Z,86.95
2023-03-28T02:15:31.968Z,87.00
2023-03-28T02:21:00.264Z,85.06
2023-03-28T02:26:29.117Z,84.20
2023-03-28T02:31:50.620Z,83.45
2023-03-28T02:36:57.846Z,82.74
2023-03-28T02:42:15.225Z,81.89
2023-03-28T02:47:39.207Z,79.76
2023-03-28T02:52:52.443Z,77.38
2023-03-28T02:58:00.341Z,75.29
2023-03-28T03:03:08.225Z,74.37
2023-03-28T03:08:11.992Z,72.21
2023-03-28T03:13:17.018Z,70.23
2023-03-28T03:18:19.844Z,69.13
2023-03-28T03:23:22.610Z,68.82
2023-03-28T03:28:29.540Z,69.47
2023-03-28T03:33:32.826Z,70.26
2023-03-28T03:38:40.083Z,70.68
2023-03-28T03:43:45.217Z,70.69
2023-03-28T03:48:50.460Z,71.04
2023-03-28T03:53:54.033Z,71.18
2023-03-28T03:59:05.026Z,70.69
2023-03-28T04:04:11.922Z,71.15
2023-03-28T04:09:34.594Z,72.26
2023-03-28T04:14:39.517Z,72.20
2023-03-28T04:20:13.352Z,72.53
2023-03-28T04:25:35.752Z,72.27
2023-03-28T04:30:42.011Z,72.78
2023-03-28T04:36:06.184Z,73.35
2023-03-28T04:41:09.621Z,73.99
2023-03-28T04:46:38.231Z,74.31
2023-03-28T04:51:50.978Z,74.85
2023-03-28T04:56:53.875Z,75.76
2023-03-28T05:02:05.167Z,76.26
2023-03-28T05:07:28.445Z,77.09
2023-03-28T05:12:31.320Z,78.03
2023-03-28T05:17:38.690Z,78.88
2023-03-28T05:23:06.442Z,79.00
2023-03-28T05:28:12.173Z,79.36
2023-03-28T05:33:23.351Z,78.59
2023-03-28T05:38:27.046Z,78.99
2023-03-28T05:43:33.627Z,79.54
2023-03-28T05:48:37.216Z,79.90
2023-03-28T05:53:39.885Z,79.96
2023-03-28T05:58:45.618Z,80.95
2023-03-28T06:03:48.380Z,81.25
2023-03-28T06:08:51.364Z,81.56
2023-03-28T06:13:54.630Z,80.80
2023-03-28T06:19:06.870Z,79.54
2023-03-28T06:24:18.095Z,78.75
2023-03-28T06:29:22.176Z,77.69
2023-03-28T06:34:33.890Z,77.06
2023-03-28T06:39:37.836Z,76.45
2023-03-28T06:44:41.080Z,76.72
2023-03-28T06:49:54.056Z,77.36
2023-03-28T06:54:59.528Z,77.09
2023-03-28T07:00:02.504Z,76.97
2023-03-28T07:05:25.215Z,76.08
2023-03-28T07:10:28.206Z,75.36
2023-03-28T07:15:31.205Z,74.43
2023-03-28T07:20:34.576Z,73.54
2023-03-28T07:25:37.559Z,71.53
2023-03-28T07:30:40.634Z,70.96
2023-03-28T07:35:43.452Z,70.86
2023-03-28T07:40:48.957Z,69.31
2023-03-28T07:45:52.265Z,67.55
2023-03-28T07:50:55.757Z,66.63
2023-03-28T07:55:59.683Z,65.84
2023-03-28T08:01:13.051Z,65.83
2023-03-28T08:06:30.923Z,65.65
2023-03-28T08:11:36.261Z,66.19
2023-03-28T08:16:39.362Z,66.06
2023-03-28T08:21:42.202Z,66.53
2023-03-28T08:26:47.432Z,67.34
2023-03-28T08:31:52.027Z,67.94
2023-03-28T08:36:55.005Z,67.89
2023-03-28T08:42:27.613Z,66.80
2023-03-28T08:47:33.862Z,67.06
2023-03-28T08:52:36.920Z,67.20
2023-03-28T08:57:42.790Z,68.02
2023-03-28T09:02:45.407Z,68.68
2023-03-28T09:08:08.344Z,68.45
2023-03-28T09:13:14.921Z,68.35
2023-03-28T09:18:57.871Z,68.37
2023-03-28T09:24:21.881Z,68.24
2023-03-28T09:29:40.534Z,67.56
2023-03-28T09:34:46.649Z,67.39
2023-03-28T09:39:53.896Z,67.09
2023-03-28T09:45:35.454Z,66.84
2023-03-28T09:50:59.056Z,66.50
2023-03-28T09:56:06.473Z,66.76
2023-03-28T10:01:44.450Z,65.77
2023-03-28T10:07:11.556Z,64.83
2023-03-28T10:12:44.022Z,65.02
2023-03-28T10:17:46.914Z,65.20
2023-03-28T10:22:55.104Z,64.84
2023-03-28T10:28:00.998Z,64.75
2023-03-28T10:33:07.152Z,64.95
2023-03-28T10:38:48.109Z,64.79
2023-03-28T10:44:19.516Z,64.49
2023-03-28T10:49:51.143Z,64.88
2023-03-28T10:55:18.667Z,64.73
2023-03-28T11:00:42.430Z,65.43
2023-03-28T11:06:01.725Z,65.56
2023-03-28T11:11:30.375Z,65.46
2023-03-28T11:16:54.786Z,64.47
2023-03-28T11:22:33.368Z,65.54
2023-03-28T11:27:42.959Z,66.15
2023-03-28T11:33:14.403Z,66.64
2023-03-28T11:38:22.636Z,66.76
2023-03-28T11:43:35.652Z,66.87
2023-03-28T11:49:18.528Z,67.34
2023-03-28T11:54:36.991Z,67.89
2023-03-28T11:59:43.217Z,68.90
2023-03-28T12:05:10.710Z,69.06
2023-03-28T12:10:38.548Z,68.90
2023-03-28T12:16:12.345Z,70.22
2023-03-28T12:21:41.948Z,70.55
2023-03-28T12:27:08.037Z,71.65
2023-03-28T12:32:27.747Z,72.22
2023-03-28T12:38:23.064Z,73.04
2023-03-28T12:43:56.097Z,73.75
2023-03-28T12:49:11.657Z,74.59
2023-03-28T12:54:17.517Z,75.73
2023-03-28T12:59:48.429Z,75.83
2023-03-28T13:05:19.051Z,76.30
2023-03-28T13:11:08.611Z,76.91
2023-03-28T13:16:17.480Z,77.40
2023-03-28T13:21:43.617Z,78.18
2023-03-28T13:26:57.912Z,78.85
2023-03-28T13:32:04.462Z,78.71
2023-03-28T13:37:42.189Z,78.91
2023-03-28T13:42:58.308Z,79.42
2023-03-28T13:48:12.654Z,80.43
2023-03-28T13:53:16.123Z,80.83
2023-03-28T13:58:19.346Z,80.95
2023-03-28T14:03:22.280Z,81.46
2023-03-28T14:08:26.143Z,81.61
2023-03-28T14:13:32.294Z,81.41
2023-03-28T14:18:46.460Z,80.29
2023-03-28T14:23:57.475Z,80.15
2023-03-28T14:29:15.378Z,80.02
2023-03-28T14:34:21.749Z,79.64
2023-03-28T14:39:25.271Z,79.92
2023-03-28T14:44:29.236Z,80.25
2023-03-28T14:49:33.083Z,80.96
2023-03-28T14:54:39.767Z,81.24
2023-03-28T14:59:45.339Z,81.90
2023-03-28T15:04:48.610Z,82.25
2023-03-28T15:10:13.059Z,81.77
2023-03-28T15:15:25.586Z,82.06
2023-03-28T15:20:32.438Z,82.44
2023-03-28T15:25:36.189Z,82.43
2023-03-28T15:30:44.024Z,83.26
2023-03-28T15:35:47.279Z,83.17
2023-03-28T15:40:51.740Z,83.43
2023-03-28T15:46:02.365Z,83.80
2023-03-28T15:51:07.224Z,83.67
2023-03-28T15:56:24.421Z,84.10
2023-03-28T16:01:32.450Z,84.34
2023-03-28T16:06:44.167Z,84.49
2023-03-28T16:11:48.132Z,85.35
2023-03-28T16:17:29.243Z,85.04
2023-03-28T16:22:45.569Z,84.56
2023-03-28T16:27:48.563Z,85.01
2023-03-28T16:32:51.608Z,85.22
2023-03-28T16:37:55.535Z,85.86
2023-03-28T16:42:58.911Z,85.54
2023-03-28T16:48:01.832Z,85.50
2023-03-28T16:53:06.849Z,85.09
2023-03-28T16:58:09.585Z,84.84
2023-03-28T17:03:18.181Z,85.11
2023-03-28T17:08:22.619Z,85.14
2023-03-28T17:13:25.471Z,85.70
2023-03-28T17:18:28.440Z,85.78
2023-03-28T17:23:32.046Z,86.62
2023-03-28T17:28:39.263Z,87.02
2023-03-28T17:33:42.237Z,87.27
2023-03-28T17:38:45.216Z,87.45
2023-03-28T17:43:47.925Z,87.96
2023-03-28T17:48:51.101Z,87.95
2023-03-28T17:53:54.540Z,88.26
2023-03-28T17:58:59.899Z,87.70
2023-03-28T18:04:02.900Z,87.49
2023-03-28T18:09:31.773Z,87.66
2023-03-28T18:14:34.658Z,87.23
2023-03-28T18:19:37.548Z,87.74
2023-03-28T18:24:40.369Z,87.80
2023-03-28T18:29:43.120Z,87.64
2023-03-28T18:34:45.808Z,87.25
2023-03-28T18:39:49.026Z,86.99
2023-03-28T18:44:51.695Z,87.52
2023-03-28T18:49:54.794Z,87.44
2023-03-28T18:54:57.641Z,86.92
2023-03-28T19:00:00.680Z,86.91
2023-03-28T19:05:03.493Z,86.93
2023-03-28T19:10:07.718Z,87.04
2023-03-28T19:15:11.288Z,87.08
2023-03-28T19:20:14.047Z,87.55
2023-03-28T19:25:16.900Z,87.43
2023-03-28T19:30:19.848Z,87.91
2023-03-28T19:35:23.111Z,88.70
2023-03-28T19:40:26.994Z,89.39
2023-03-28T19:45:30.205Z,90.75
2023-03-28T19:50:33.947Z,90.53
2023-03-28T19:55:36.814Z,91.15
2023-03-28T20:00:39.563Z,90.46
2023-03-28T20:05:47.388Z,90.60
2023-03-28T20:10:51.688Z,90.14
2023-03-28T20:15:55.828Z,91.35
2023-03-28T20:21:01.081Z,92.44
2023-03-28T20:26:15.805Z,93.64
2023-03-28T20:31:19.383Z,95.50
2023-03-28T20:36:22.872Z,97.17
2023-03-28T20:41:27.343Z,97.46
2023-03-28T20:46:32.991Z,98.14
2023-03-28T20:51:39.298Z,98.14
2023-03-28T20:56:43.075Z,98.43
2023-03-28T21:01:46.373Z,98.42
2023-03-28T21:06:50.374Z,98.99
2023-03-28T21:11:53.234Z,99.62
2023-03-28T21:16:58.297Z,100.00
2023-03-28T21:22:01.701Z,100.00
2023-03-28T21:27:04.843Z,100.00
2023-03-28T21:32:07.829Z,100.00
2023-03-28T21:37:11.404Z,100.00
2023-03-28T21:42:14.085Z,100.00
2023-03-28T21:47:16.850Z,100.00
2023-03-28T21:52:20.001Z,100.00
2023-03-28T21:57:22.910Z,100.00
2023-03-28T22:02:25.923Z,100.00
2023-03-28T22:07:28.610Z,100.00
2023-03-28T22:12:32.841Z,100.00
2023-03-28T22:17:38.809Z,100.00
2023-03-28T22:22:48.846Z,100.00
2023-03-28T22:27:53.224Z,100.00
2023-03-28T22:32:56.032Z,100.00
2023-03-28T22:37:59.262Z,100.00
2023-03-28T22:43:03.509Z,100.00
2023-03-28T22:48:14.711Z,100.00
2023-03-28T22:53:18.252Z,100.00
2023-03-28T22:58:22.900Z,100.00
2023-03-28T23:03:25.712Z,100.00
2023-03-28T23:08:28.726Z,100.00
2023-03-28T23:13:31.577Z,100.00
2023-03-28T23:18:34.519Z,100.00
2023-03-28T23:23:37.195Z,100.00
2023-03-28T23:28:40.082Z,100.00
2023-03-28T23:33:44.961Z,100.00
2023-03-28T23:38:48.473Z,100.00
2023-03-28T23:43:51.362Z,100.00
2023-03-28T23:48:54.074Z,100.00
2023-03-28T23:53:56.835Z,100.00
2023-03-28T23:58:59.524Z,100.00
